createdAt,value
2022-09-01T06:10:00.938Z,100673.83
2022-09-01T06:11:02.828Z,100670.80
2022-09-01T06:12:04.707Z,100661.91
2022-09-01T06:13:06.582Z,100670.74
2022-09-01T06:14:10.328Z,100662.80
2022-09-01T06:15:12.261Z,100665.39
2022-09-01T06:16:16.098Z,100665.39
2022-09-01T06:17:17.976Z,100660.15
2022-09-01T06:18:19.868Z,100665.39
2022-09-01T06:19:21.752Z,100668.95
2022-09-01T06:20:23.798Z,100675.13
2022-09-01T06:21:25.690Z,100670.69
2022-09-01T06:22:27.633Z,100673.39
2022-09-01T06:23:29.525Z,100678.63
2022-09-01T06:24:31.418Z,100676.89
2022-09-01T06:25:33.365Z,100676.89
2022-09-01T06:26:35.335Z,100680.42
2022-09-01T06:27:37.270Z,100663.59
2022-09-01T06:28:39.151Z,100675.98
2022-09-01T06:29:41.041Z,100668.04
2022-09-01T06:30:43.074Z,100672.42
2022-09-01T06:31:44.999Z,100662.68
2022-09-01T06:32:46.843Z,100669.77
2022-09-01T06:33:48.740Z,100666.18
2022-09-01T06:34:50.608Z,100668.83
2022-09-01T06:35:52.577Z,100662.62
2022-09-01T06:36:54.471Z,100668.77
2022-09-01T06:37:56.350Z,100667.01
2022-09-01T06:38:58.246Z,100670.51
2022-09-01T06:40:00.185Z,100665.21
2022-09-01T06:41:02.133Z,100666.06
2022-09-01T06:42:06.356Z,100666.95
2022-09-01T06:43:08.414Z,100662.50
2022-09-01T06:44:14.476Z,100672.25
2022-09-01T06:46:35.528Z,100666.89
2022-09-01T06:47:37.443Z,100669.66
2022-09-01T06:48:39.334Z,100666.89
2022-09-01T06:49:41.237Z,100671.30
2022-09-01T06:51:46.953Z,100664.30
2022-09-01T06:53:53.626Z,100669.54
2022-09-01T06:54:55.504Z,100675.69
2022-09-01T06:55:57.651Z,100671.30
2022-09-01T06:56:59.676Z,100674.89
2022-09-01T06:58:03.700Z,100672.19
2022-09-01T06:59:05.290Z,100674.84
2022-09-01T07:00:08.092Z,100676.54
2022-09-01T07:01:10.318Z,100673.89
2022-09-01T07:02:17.291Z,100677.42
2022-09-01T07:03:17.331Z,100680.92
2022-09-01T07:04:19.281Z,100675.62
2022-09-01T07:08:32.572Z,100665.03
2022-09-01T07:09:48.043Z,100665.89
2022-09-01T07:11:19.489Z,100667.63
2022-09-01T07:13:05.429Z,100662.33
2022-09-01T07:18:04.442Z,100664.91
2022-09-01T07:19:06.617Z,100657.87
2022-09-01T07:20:24.807Z,100657.03
2022-09-01T07:23:20.056Z,100649.94
2022-09-01T07:24:22.858Z,100649.08
2022-09-01T07:25:34.914Z,100648.23
2022-09-01T07:26:29.452Z,100643.78
2022-09-01T07:28:36.868Z,100644.69
2022-09-01T07:29:38.838Z,100647.34
2022-09-01T07:30:41.030Z,100647.34
2022-09-01T07:32:41.134Z,100638.55
2022-09-01T07:32:47.782Z,100639.39
2022-09-01T07:33:54.048Z,100639.39
2022-09-01T07:34:54.547Z,100643.78
2022-09-01T07:38:03.918Z,100639.45
2022-09-01T07:38:48.029Z,100633.24
2022-09-01T07:42:31.638Z,100649.08
2022-09-01T07:43:23.290Z,100634.03
2022-09-01T07:44:25.264Z,100628.73
2022-09-01T07:45:28.007Z,100635.77
2022-09-01T07:46:38.031Z,100632.21
2022-09-01T07:49:02.633Z,100631.27
2022-09-01T07:51:49.146Z,100628.44
2022-09-01T07:52:51.413Z,100631.02
2022-09-01T07:53:53.311Z,100630.17
2022-09-01T07:54:55.219Z,100630.11
2022-09-01T07:55:57.135Z,100638.88
2022-09-01T07:56:58.989Z,100634.38
2022-09-01T07:58:00.866Z,100636.11
2022-09-01T07:59:02.773Z,100640.41
2022-09-01T08:00:04.891Z,100637.66
2022-09-01T08:01:06.744Z,100640.25
2022-09-01T08:02:08.671Z,100639.34
2022-09-01T08:03:10.571Z,100641.92
2022-09-01T08:04:12.409Z,100634.83
2022-09-01T08:05:14.358Z,100635.59
2022-09-01T08:06:16.358Z,100634.64
2022-09-01T08:07:18.246Z,100631.02
2022-09-01T08:08:21.842Z,100634.48
2022-09-01T08:09:36.999Z,100630.89
2022-09-01T08:10:27.573Z,100629.91
2022-09-01T08:11:58.615Z,100629.85
2022-09-01T08:12:33.161Z,100628.05
2022-09-01T08:13:41.176Z,100625.27
2022-09-01T08:14:38.729Z,100624.30
2022-09-01T08:16:06.700Z,100617.13
2022-09-01T08:16:53.159Z,100624.10
2022-09-01T08:17:52.282Z,100618.67
2022-09-01T08:18:52.831Z,100615.05
2022-09-01T08:19:55.361Z,100614.91
2022-09-01T08:20:58.308Z,100603.33
2022-09-01T08:22:00.383Z,100613.80
2022-09-01T08:23:02.247Z,100606.63
2022-09-01T08:24:04.126Z,100605.65
2022-09-01T08:25:05.990Z,100605.52
2022-09-01T08:26:07.976Z,100607.16
2022-09-01T08:27:09.824Z,100609.67
2022-09-01T08:28:11.706Z,100607.84
2022-09-01T08:29:13.584Z,100609.52
2022-09-01T08:30:15.925Z,100609.45
2022-09-01T08:31:18.019Z,100610.23
2022-09-01T08:32:19.906Z,100608.33
2022-09-01T08:33:21.858Z,100610.84
2022-09-01T08:34:23.805Z,100611.73
2022-09-01T08:35:26.896Z,100607.20
2022-09-01T08:36:29.114Z,100613.30
2022-09-01T08:37:30.968Z,100605.27
2022-09-01T08:38:32.820Z,100605.20
2022-09-01T08:39:34.696Z,100598.91
2022-09-01T08:40:37.090Z,100607.69
2022-09-01T08:41:39.046Z,100607.62
2022-09-01T08:42:40.896Z,100607.48
2022-09-01T08:43:42.748Z,100604.76
2022-09-01T08:44:44.641Z,100602.04
2022-09-01T08:45:46.510Z,100609.86
2022-09-01T08:46:48.446Z,100604.48
2022-09-01T08:48:22.382Z,100614.16
2022-09-01T08:49:57.634Z,100591.08
2022-09-01T08:50:59.581Z,100600.64
2022-09-01T08:52:01.503Z,100604.99
2022-09-01T08:53:11.007Z,100596.04
2022-09-01T08:54:07.456Z,100598.55
2022-09-01T08:55:09.413Z,100601.14
2022-09-01T08:56:12.185Z,100595.83
2022-09-01T08:57:14.075Z,100605.53
2022-09-01T08:58:15.932Z,100600.15
2022-09-01T08:59:17.811Z,100589.46
2022-09-01T09:00:19.692Z,100588.50
2022-09-01T09:01:21.924Z,100588.44
2022-09-01T09:02:24.054Z,100587.45
2022-09-01T09:03:25.951Z,100583.80
2022-09-01T09:04:27.809Z,100579.27
2022-09-01T09:05:29.647Z,100580.08
2022-09-01T09:06:31.505Z,100583.52
2022-09-01T09:07:33.413Z,100581.63
2022-09-01T09:08:35.266Z,100592.11
2022-09-01T09:09:37.156Z,100594.66
2022-09-01T09:10:39.123Z,100591.08
2022-09-01T09:11:41.064Z,100583.04
2022-09-01T09:12:50.138Z,100590.87
2022-09-01T09:13:46.807Z,100592.60
2022-09-01T09:14:48.691Z,100588.14
2022-09-01T09:15:50.601Z,100587.22
2022-09-01T09:16:53.553Z,100591.57
2022-09-01T09:17:59.976Z,100589.73
2022-09-01T09:19:00.063Z,100589.66
2022-09-01T09:20:01.911Z,100599.36
2022-09-01T09:21:03.856Z,100600.13
2022-09-01T09:22:06.527Z,100594.75
2022-09-01T09:23:09.563Z,100586.70
2022-09-01T09:24:11.413Z,100585.86
2022-09-01T09:25:13.268Z,100591.02
2022-09-01T09:26:21.883Z,100591.80
2022-09-01T09:27:20.473Z,100583.83
2022-09-01T09:28:22.410Z,100595.23
2022-09-01T09:29:24.265Z,100594.23
2022-09-01T09:30:26.514Z,100592.36
2022-09-01T09:31:28.820Z,100595.89
2022-09-01T09:32:50.467Z,100586.12
2022-09-01T09:33:52.586Z,100577.15
2022-09-01T09:34:38.181Z,100587.62
2022-09-01T09:35:40.031Z,100577.77
2022-09-01T09:36:41.957Z,100575.05
2022-09-01T09:37:43.785Z,100579.28
2022-09-01T09:38:45.681Z,100580.13
2022-09-01T09:39:47.554Z,100579.98
2022-09-01T09:41:14.034Z,100575.47
2022-09-01T09:41:53.257Z,100572.74
2022-09-01T09:42:55.067Z,100570.93
2022-09-01T09:43:58.615Z,100569.05
2022-09-01T09:45:00.898Z,100564.69
2022-09-01T09:46:02.933Z,100569.05
2022-09-01T09:47:17.289Z,100564.54
2022-09-01T09:48:10.789Z,100568.05
2022-09-01T09:49:12.790Z,100571.52
2022-09-01T09:50:14.952Z,100570.48
2022-09-01T09:51:16.814Z,100572.20
2022-09-01T09:52:18.659Z,100568.58
2022-09-01T09:53:20.543Z,100572.94
2022-09-01T09:54:22.562Z,100564.97
2022-09-01T09:55:24.449Z,100566.62
2022-09-01T09:56:26.626Z,100566.54
2022-09-01T09:57:28.474Z,100569.20
2022-09-01T09:58:30.298Z,100573.52
2022-09-01T09:59:56.604Z,100566.39
2022-09-01T10:00:35.875Z,100578.75
2022-09-01T10:01:38.265Z,100574.28
2022-09-01T10:02:40.570Z,100574.20
2022-09-01T10:03:42.771Z,100573.28
2022-09-01T10:04:44.661Z,100570.62
2022-09-01T10:05:46.518Z,100570.55
2022-09-01T10:06:48.369Z,100575.78
2022-09-01T10:07:50.226Z,100575.70
2022-09-01T10:08:52.109Z,100569.46
2022-09-01T10:09:54.008Z,100569.30
2022-09-01T10:10:58.395Z,100580.72
2022-09-01T10:11:59.610Z,100570.08
2022-09-01T10:13:02.669Z,100570.00
2022-09-01T10:14:04.501Z,100569.07
2022-09-01T10:15:11.672Z,100571.66
2022-09-01T10:16:11.354Z,100574.23
2022-09-01T10:17:13.405Z,100569.84
2022-09-01T10:18:21.035Z,100558.20
2022-09-01T10:19:20.732Z,100554.58
2022-09-01T10:20:23.181Z,100566.02
2022-09-01T10:21:25.051Z,100567.64
2022-09-01T10:22:26.903Z,100558.73
2022-09-01T10:23:31.193Z,100561.31
2022-09-01T10:24:32.665Z,100562.11
2022-09-01T10:25:34.680Z,100562.97
2022-09-01T10:26:36.958Z,100556.72
2022-09-01T10:27:39.120Z,100560.14
2022-09-01T10:28:40.969Z,100568.05
2022-09-01T10:29:48.007Z,100575.95
2022-09-01T10:30:48.388Z,100567.03
2022-09-01T10:31:56.065Z,100561.64
2022-09-01T10:32:55.921Z,100564.30
2022-09-01T10:33:58.704Z,100571.23
2022-09-01T10:35:00.730Z,100564.14
2022-09-01T10:36:06.829Z,100564.05
2022-09-01T10:37:11.392Z,100575.47
2022-09-01T10:38:12.126Z,100565.67
2022-09-01T10:39:14.203Z,100574.62
2022-09-01T10:40:20.559Z,100566.64
2022-09-01T10:41:19.998Z,100571.88
2022-09-01T10:42:21.818Z,100562.09
2022-09-01T10:43:25.609Z,100559.42
2022-09-01T10:44:31.320Z,100560.27
2022-09-01T10:45:31.207Z,100554.87
2022-09-01T10:46:48.886Z,100547.77
2022-09-01T10:47:37.803Z,100545.11
2022-09-01T10:48:48.802Z,100543.30
2022-09-01T10:49:46.435Z,100541.56
2022-09-01T10:50:47.852Z,100552.20
2022-09-01T10:51:51.781Z,100543.30
2022-09-01T10:52:53.833Z,100547.77
2022-09-01T10:53:55.723Z,100538.91
2022-09-01T10:54:57.613Z,100551.28
2022-09-01T10:56:02.037Z,100553.94
2022-09-01T10:57:04.286Z,100540.59
2022-09-01T10:59:29.997Z,100550.38
2022-09-01T11:01:46.689Z,100549.45
2022-09-01T11:02:24.850Z,100556.47
2022-09-01T11:03:30.664Z,100554.77
2022-09-01T11:04:30.480Z,100560.09
2022-09-01T11:05:33.403Z,100553.05
2022-09-01T11:06:35.462Z,100553.05
2022-09-01T11:08:41.121Z,100551.28
2022-09-01T11:09:43.107Z,100551.36
2022-09-01T11:10:45.497Z,100553.94
2022-09-01T11:11:47.392Z,100551.36
2022-09-01T11:12:49.827Z,100549.55
2022-09-01T11:13:51.707Z,100548.70
2022-09-01T11:14:53.590Z,100546.04
2022-09-01T11:15:55.489Z,100549.55
2022-09-01T11:16:59.239Z,100544.30
2022-09-01T11:18:01.268Z,100542.53
2022-09-01T11:19:03.158Z,100545.19
2022-09-01T11:20:06.242Z,100541.64
2022-09-01T11:21:08.272Z,100543.38
2022-09-01T11:22:10.330Z,100543.38
2022-09-01T11:23:12.483Z,100549.55
2022-09-01T11:24:16.259Z,100546.04
2022-09-01T11:25:18.143Z,100550.52
2022-09-01T11:26:20.368Z,100550.52
2022-09-01T11:27:22.279Z,100547.85
2022-09-01T11:28:24.295Z,100551.44
2022-09-01T11:29:26.179Z,100548.78
2022-09-01T11:30:28.108Z,100555.83
2022-09-01T11:31:30.044Z,100552.29
2022-09-01T11:32:31.992Z,100547.05
2022-09-01T11:33:33.925Z,100540.03
2022-09-01T11:34:35.787Z,100546.28
2022-09-01T11:35:37.687Z,100545.43
2022-09-01T11:36:39.589Z,100544.55
2022-09-01T11:37:41.559Z,100551.77
2022-09-01T11:38:43.547Z,100536.65
2022-09-01T11:39:45.450Z,100539.31
2022-09-01T11:40:47.381Z,100536.65
2022-09-01T11:41:54.534Z,100527.81
2022-09-01T11:42:53.325Z,100528.75
2022-09-01T11:43:57.048Z,100529.63
2022-09-01T11:44:58.946Z,100530.48
2022-09-01T11:46:00.861Z,100526.01
2022-09-01T11:47:03.147Z,100526.01
2022-09-01T11:48:05.138Z,100521.56
2022-09-01T11:49:07.053Z,100518.91
2022-09-01T11:50:09.194Z,100517.09
2022-09-01T11:51:14.611Z,100517.17
2022-09-01T11:52:14.793Z,100526.01
2022-09-01T11:53:16.807Z,100527.81
2022-09-01T11:54:18.963Z,100530.48
2022-09-01T11:55:20.858Z,100532.37
2022-09-01T11:56:23.558Z,100532.37
2022-09-01T11:57:25.465Z,100530.56
2022-09-01T11:58:27.337Z,100530.56
2022-09-01T11:59:29.272Z,100529.70
2022-09-01T12:00:31.159Z,100533.22
2022-09-01T12:01:33.053Z,100533.22
2022-09-01T12:02:36.987Z,100531.57
2022-09-01T12:03:38.921Z,100530.72
2022-09-01T12:04:41.033Z,100526.33
2022-09-01T12:05:42.953Z,100523.75
2022-09-01T12:06:44.850Z,100530.88
2022-09-01T12:07:46.742Z,100526.49
2022-09-01T12:08:48.656Z,100518.59
2022-09-01T12:09:50.653Z,100521.33
2022-09-01T12:10:52.523Z,100517.98
2022-09-01T12:11:54.426Z,100528.46
2022-09-01T12:12:56.337Z,100532.05
2022-09-01T12:13:58.202Z,100529.39
2022-09-01T12:15:06.193Z,100540.03
2022-09-01T12:16:19.605Z,100528.63
2022-09-01T12:17:07.577Z,100531.36
2022-09-01T12:18:09.418Z,100527.82
2022-09-01T12:19:11.321Z,100534.18
2022-09-01T12:20:13.355Z,100532.37
2022-09-01T12:21:15.242Z,100532.37
2022-09-01T12:22:17.112Z,100530.56
2022-09-01T12:23:19.080Z,100533.30
2022-09-01T12:24:20.979Z,100534.26
2022-09-01T12:25:23.012Z,100531.68
2022-09-01T12:26:25.009Z,100542.40
2022-09-01T12:27:26.955Z,100538.86
2022-09-01T12:28:30.419Z,100545.14
2022-09-01T12:29:32.619Z,100538.94
2022-09-01T12:30:34.585Z,100543.41
2022-09-01T12:31:36.516Z,100541.67
2022-09-01T12:32:38.382Z,100533.70
2022-09-01T12:33:40.552Z,100540.83
2022-09-01T12:34:42.775Z,100534.66
2022-09-01T12:35:44.699Z,100539.09
2022-09-01T12:37:48.403Z,100538.24
2022-09-01T12:38:50.386Z,100545.37
2022-09-01T12:39:52.292Z,100543.56
2022-09-01T12:40:54.290Z,100541.83
2022-09-01T12:41:56.158Z,100543.56
2022-09-01T12:42:58.143Z,100544.49
2022-09-01T12:44:00.039Z,100547.15
2022-09-01T12:45:01.900Z,100544.49
2022-09-01T12:46:04.607Z,100540.13
2022-09-01T12:47:06.749Z,100540.13
2022-09-01T12:48:08.620Z,100540.13
2022-09-01T12:49:10.791Z,100546.30
2022-09-01T12:50:12.780Z,100544.49
2022-09-01T12:51:14.676Z,100544.49
2022-09-01T12:52:20.043Z,100540.05
2022-09-01T12:53:20.545Z,100541.83
2022-09-01T12:54:22.583Z,100545.37
2022-09-01T12:56:28.602Z,100543.56
2022-09-01T12:57:30.525Z,100551.46
2022-09-01T12:58:32.485Z,100542.63
2022-09-01T12:59:36.214Z,100546.14
2022-09-01T13:00:38.134Z,100560.29
2022-09-01T13:01:40.148Z,100546.14
2022-09-01T13:02:42.251Z,100556.78
2022-09-01T13:03:44.402Z,100556.78
2022-09-01T13:04:46.280Z,100558.59
2022-09-01T13:05:48.136Z,100560.29
2022-09-01T13:06:50.059Z,100557.62
2022-09-01T13:07:52.397Z,100562.95
2022-09-01T13:08:54.246Z,100560.29
2022-09-01T13:09:56.222Z,100566.49
2022-09-01T13:10:58.069Z,100565.53
2022-09-01T13:12:07.800Z,100562.02
2022-09-01T13:13:03.734Z,100557.62
2022-09-01T13:14:05.595Z,100557.62
2022-09-01T13:15:07.522Z,100552.31
2022-09-01T13:16:09.560Z,100549.66
2022-09-01T13:17:14.306Z,100556.78
2022-09-01T13:18:15.630Z,100555.94
2022-09-01T13:19:26.526Z,100553.35
2022-09-01T13:20:21.185Z,100556.01
2022-09-01T13:21:23.049Z,100556.01
2022-09-01T13:22:25.053Z,100556.01
2022-09-01T13:23:26.898Z,100563.03
2022-09-01T13:24:31.539Z,100562.18
2022-09-01T13:25:32.421Z,100565.69
2022-09-01T13:26:34.285Z,100560.37
2022-09-01T13:27:36.194Z,100569.23
2022-09-01T13:28:40.412Z,100570.16
2022-09-01T13:29:41.736Z,100566.65
2022-09-01T13:30:43.616Z,100563.11
2022-09-01T13:34:56.702Z,100564.91
2022-09-01T13:35:58.598Z,100569.30
2022-09-01T13:37:00.434Z,100567.58
2022-09-01T13:38:02.375Z,100566.73
2022-09-01T13:39:04.240Z,100560.52
2022-09-01T13:40:06.131Z,100564.99
2022-09-01T13:41:08.000Z,100571.24
2022-09-01T13:42:09.883Z,100572.20
2022-09-01T13:43:11.924Z,100572.28
2022-09-01T13:44:13.812Z,100579.30
2022-09-01T13:45:16.559Z,100580.25
2022-09-01T13:46:19.605Z,100578.52
2022-09-01T13:47:29.718Z,100575.94
2022-09-01T13:49:02.004Z,100580.30
2022-09-01T13:50:05.580Z,100581.26
2022-09-01T13:51:14.178Z,100578.67
2022-09-01T13:51:36.440Z,100578.75
2022-09-01T13:52:38.309Z,100584.92
2022-09-01T13:53:40.223Z,100584.15
2022-09-01T13:54:42.100Z,100577.95
2022-09-01T13:55:43.972Z,100586.00
2022-09-01T13:56:45.864Z,100588.66
2022-09-01T13:57:48.500Z,100588.73
2022-09-01T13:58:51.573Z,100593.28
2022-09-01T13:59:53.443Z,100587.38
2022-09-01T14:00:55.370Z,100587.38
2022-09-01T14:01:57.214Z,100588.39
2022-09-01T14:02:59.077Z,100592.86
2022-09-01T14:04:01.131Z,100595.55
2022-09-01T14:05:02.976Z,100593.86
2022-09-01T14:06:04.850Z,100585.95
2022-09-01T14:07:06.741Z,100593.93
2022-09-01T14:08:08.706Z,100593.05
2022-09-01T14:09:13.473Z,100592.20
2022-09-01T14:10:14.577Z,100594.00
2022-09-01T14:11:16.427Z,100589.61
2022-09-01T14:12:18.277Z,100594.08
2022-09-01T14:13:20.230Z,100594.16
2022-09-01T14:14:22.130Z,100597.66
2022-09-01T14:15:27.370Z,100597.66
2022-09-01T14:16:27.791Z,100592.34
2022-09-01T14:17:29.659Z,100603.75
2022-09-01T14:18:31.503Z,100594.93
2022-09-01T14:19:33.398Z,100593.13
2022-09-01T14:20:35.306Z,100591.50
2022-09-01T14:21:39.008Z,100593.27
2022-09-01T14:22:40.904Z,100594.23
2022-09-01T14:23:42.783Z,100597.81
2022-09-01T14:24:44.695Z,100602.28
2022-09-01T14:25:46.579Z,100603.13
2022-09-01T14:26:48.429Z,100608.44
2022-09-01T14:27:50.282Z,100604.94
2022-09-01T14:28:53.755Z,100605.78
2022-09-01T14:29:55.688Z,100607.59
2022-09-01T14:31:58.740Z,100606.71
2022-09-01T14:33:00.629Z,100614.76
2022-09-01T14:34:02.456Z,100614.76
2022-09-01T14:35:04.412Z,100615.64
2022-09-01T14:36:06.262Z,100614.76
2022-09-01T14:37:08.118Z,100617.41
2022-09-01T14:38:09.955Z,100617.34
2022-09-01T14:39:11.823Z,100617.41
2022-09-01T14:40:15.577Z,100620.95
2022-09-01T14:41:17.377Z,100620.95
2022-09-01T14:42:19.207Z,100621.03
2022-09-01T14:43:21.048Z,100621.03
2022-09-01T14:44:22.896Z,100623.69
2022-09-01T14:45:24.876Z,100621.10
2022-09-01T14:46:26.867Z,100613.98
2022-09-01T14:47:29.109Z,100621.95
2022-09-01T14:48:32.093Z,100614.83
2022-09-01T14:49:33.955Z,100621.88
2022-09-01T14:50:36.047Z,100620.07
2022-09-01T14:52:41.581Z,100625.31
2022-09-01T14:53:43.444Z,100623.54
2022-09-01T14:54:45.298Z,100615.49
2022-09-01T14:55:47.222Z,100619.00
2022-09-01T14:57:52.756Z,100626.05
2022-09-01T14:58:54.618Z,100613.61
2022-09-01T14:59:56.471Z,100623.31
2022-09-01T15:01:11.917Z,100626.90
2022-09-01T15:02:02.113Z,100624.23
2022-09-01T15:03:03.991Z,100626.05
2022-09-01T15:04:05.877Z,100621.58
2022-09-01T15:05:07.791Z,100630.41
2022-09-01T15:06:10.304Z,100629.48
2022-09-01T15:07:12.183Z,100630.41
2022-09-01T15:08:17.562Z,100626.90
2022-09-01T15:09:19.189Z,100627.75
2022-09-01T15:10:25.161Z,100626.05
2022-09-01T15:11:25.161Z,100621.58
2022-09-01T15:12:27.229Z,100626.90
2022-09-01T15:13:29.125Z,100627.75
2022-09-01T15:14:31.005Z,100625.17
2022-09-01T15:15:32.884Z,100627.83
2022-09-01T15:16:34.939Z,100629.63
2022-09-01T15:17:36.827Z,100628.78
2022-09-01T15:18:38.701Z,100631.52
2022-09-01T15:19:40.582Z,100627.05
2022-09-01T15:20:44.001Z,100628.86
2022-09-01T15:21:45.984Z,100627.13
2022-09-01T15:22:47.868Z,100624.46
2022-09-01T15:23:49.756Z,100628.86
2022-09-01T15:24:51.643Z,100632.44
2022-09-01T15:25:53.536Z,100633.36
2022-09-01T15:26:55.502Z,100633.36
2022-09-01T15:27:57.394Z,100628.05
2022-09-01T15:28:59.265Z,100636.09
2022-09-01T15:30:01.137Z,100628.12
2022-09-01T15:31:03.070Z,100631.73
2022-09-01T15:32:05.604Z,100630.84
2022-09-01T15:33:09.050Z,100630.92
2022-09-01T15:34:11.269Z,100630.92
2022-09-01T15:35:13.151Z,100626.56
2022-09-01T15:36:15.721Z,100628.34
2022-09-01T15:37:17.659Z,100635.46
2022-09-01T15:38:19.646Z,100633.73
2022-09-01T15:39:21.822Z,100629.37
2022-09-01T15:40:23.845Z,100637.34
2022-09-01T15:41:25.827Z,100632.06
2022-09-01T15:42:27.778Z,100629.41
2022-09-01T15:43:29.733Z,100640.92
2022-09-01T15:44:31.683Z,100634.80
2022-09-01T15:45:33.636Z,100638.34
2022-09-01T15:46:35.538Z,100639.27
2022-09-01T15:47:38.300Z,100641.92
2022-09-01T15:48:42.993Z,100637.60
2022-09-01T15:49:44.901Z,100641.21
2022-09-01T15:50:46.775Z,100636.89
2022-09-01T15:51:48.656Z,100633.39
2022-09-01T15:52:50.595Z,100644.02
2022-09-01T15:53:52.469Z,100640.47
2022-09-01T15:54:54.343Z,100637.18
2022-09-01T15:55:56.225Z,100638.84
2022-09-01T15:56:58.106Z,100642.42
2022-09-01T15:58:00.025Z,100638.98
2022-09-01T15:59:02.384Z,100645.22
2022-09-01T16:00:04.407Z,100646.08
2022-09-01T16:01:06.327Z,100649.69
2022-09-01T16:02:08.357Z,100647.88
2022-09-01T16:03:10.360Z,100651.45
2022-09-01T16:04:15.960Z,100648.88
2022-09-01T16:05:15.945Z,100651.53
2022-09-01T16:06:19.330Z,100652.48
2022-09-01T16:07:21.209Z,100659.50
2022-09-01T16:08:23.144Z,100654.26
2022-09-01T16:09:25.032Z,100658.79
2022-09-01T16:10:27.222Z,100649.09
2022-09-01T16:11:29.098Z,100660.63
2022-09-01T16:12:30.955Z,100658.05
2022-09-01T16:13:32.867Z,100659.00
2022-09-01T16:14:34.750Z,100656.41
2022-09-01T16:15:36.650Z,100660.00
2022-09-01T16:16:40.689Z,100658.19
2022-09-01T16:17:42.387Z,100661.80
2022-09-01T16:18:45.223Z,100661.88
2022-09-01T16:19:47.508Z,100670.69
2022-09-01T16:20:49.384Z,100672.49
2022-09-01T16:21:51.265Z,100675.22
2022-09-01T16:22:53.157Z,100675.29
2022-09-01T16:23:55.097Z,100677.06
2022-09-01T16:24:56.955Z,100668.28
2022-09-01T16:25:58.841Z,100678.05
2022-09-01T16:27:00.720Z,100679.82
2022-09-01T16:28:02.876Z,100671.08
2022-09-01T16:29:04.807Z,100679.96
2022-09-01T16:30:06.896Z,100681.77
2022-09-01T16:32:06.361Z,100691.16
2022-09-01T16:33:08.388Z,100687.21
2022-09-01T16:34:10.340Z,100691.64
2022-09-01T16:35:12.217Z,100690.79
2022-09-01T16:36:14.605Z,100688.20
2022-09-01T16:37:16.495Z,100687.35
2022-09-01T16:38:18.380Z,100686.53
2022-09-01T16:39:22.611Z,100687.48
2022-09-01T16:40:25.127Z,100685.75
2022-09-01T16:41:26.917Z,100690.28
2022-09-01T16:42:28.818Z,100688.61
2022-09-01T16:43:30.668Z,100694.06
2022-09-01T16:44:32.580Z,100693.27
2022-09-01T16:45:34.428Z,100697.70
2022-09-01T16:46:36.325Z,100694.26
2022-09-01T16:47:38.257Z,100694.26
2022-09-01T16:48:40.127Z,100696.98
2022-09-01T16:49:42.106Z,100707.66
2022-09-01T16:50:43.967Z,100703.34
2022-09-01T16:51:46.050Z,100705.93
2022-09-01T16:52:47.915Z,100707.73
2022-09-01T16:53:49.758Z,100708.66
2022-09-01T16:54:51.663Z,100710.45
2022-09-01T16:55:53.500Z,100709.64
2022-09-01T16:56:55.359Z,100723.86
2022-09-01T16:57:59.303Z,100716.81
2022-09-01T16:59:00.910Z,100716.81
2022-09-01T17:00:02.829Z,100721.27
2022-09-01T17:01:04.687Z,100720.38
2022-09-01T17:02:06.595Z,100725.76
2022-09-01T17:03:08.478Z,100722.25
2022-09-01T17:04:10.339Z,100721.40
2022-09-01T17:05:12.249Z,100724.19
2022-09-01T17:06:16.154Z,100725.10
2022-09-01T17:07:18.005Z,100731.33
2022-09-01T17:08:19.859Z,100739.29
2022-09-01T17:09:21.730Z,100727.03
2022-09-01T17:10:23.842Z,100739.42
2022-09-01T17:11:25.681Z,100743.09
2022-09-01T17:12:27.553Z,100745.74
2022-09-01T17:13:29.419Z,100744.00
2022-09-01T17:14:31.794Z,100746.72
2022-09-01T17:15:33.699Z,100752.03
2022-09-01T17:16:35.584Z,100751.14
2022-09-01T17:17:37.402Z,100753.01
2022-09-01T17:18:39.259Z,100753.98
2022-09-01T17:19:41.121Z,100753.98
2022-09-01T17:20:43.101Z,100764.60
2022-09-01T17:21:46.809Z,100763.75
2022-09-01T17:22:48.781Z,100769.12
2022-09-01T17:23:50.613Z,100773.64
2022-09-01T17:24:52.473Z,100771.90
2022-09-01T17:25:54.377Z,100771.96
2022-09-01T17:26:56.315Z,100772.84
2022-09-01T17:27:58.697Z,100769.34
2022-09-01T17:29:00.535Z,100778.27
2022-09-01T17:30:02.385Z,100771.33
2022-09-01T17:31:04.331Z,100778.52
2022-09-01T17:32:06.232Z,100776.91
2022-09-01T17:33:17.603Z,100781.30
2022-09-01T17:34:11.771Z,100783.16
2022-09-01T17:35:13.606Z,100783.22
2022-09-01T17:36:15.972Z,100786.78
2022-09-01T17:37:18.007Z,100785.05
2022-09-01T17:38:19.865Z,100788.65
2022-09-01T17:39:21.713Z,100791.36
2022-09-01T17:40:24.877Z,100792.28
2022-09-01T17:41:27.107Z,100795.84
2022-09-01T17:42:28.961Z,100792.28
2022-09-01T17:43:30.822Z,100794.98
2022-09-01T17:44:32.678Z,100799.44
2022-09-01T17:45:34.529Z,100794.20
2022-09-01T17:46:38.330Z,100794.20
2022-09-01T17:47:40.134Z,100799.50
2022-09-01T17:48:42.008Z,100796.91
2022-09-01T17:49:43.864Z,100796.08
2022-09-01T17:51:47.590Z,100801.45
2022-09-01T17:52:52.758Z,100803.25
2022-09-01T17:53:53.159Z,100808.55
2022-09-01T17:54:55.039Z,100809.46
2022-09-01T17:55:56.869Z,100809.52
2022-09-01T17:56:58.765Z,100804.34
2022-09-01T17:58:00.620Z,100812.30
2022-09-01T17:59:02.480Z,100807.91
2022-09-01T18:00:04.434Z,100809.70
2022-09-01T18:01:06.398Z,100797.36
2022-09-01T18:02:08.399Z,100804.52
2022-09-01T18:03:10.355Z,100796.63
2022-09-01T18:04:12.211Z,100805.48
2022-09-01T18:05:14.101Z,100797.59
2022-09-01T18:06:16.238Z,100802.05
2022-09-01T18:07:18.206Z,100799.39
2022-09-01T18:08:20.064Z,100805.61
2022-09-01T18:09:21.908Z,100806.55
2022-09-01T18:10:24.920Z,100801.31
2022-09-01T18:11:26.791Z,100796.06
2022-09-01T18:12:28.675Z,100796.13
2022-09-01T18:13:51.865Z,100803.19
2022-09-01T18:14:34.203Z,100802.34
2022-09-01T18:15:36.119Z,100802.39
2022-09-01T18:16:38.352Z,100799.80
2022-09-01T18:17:40.236Z,100799.86
2022-09-01T18:18:42.093Z,100798.97
2022-09-01T18:19:43.941Z,100799.03
2022-09-01T18:20:45.792Z,100798.18
2022-09-01T18:21:49.506Z,100795.53
2022-09-01T18:23:54.926Z,100789.49
2022-09-01T18:24:56.803Z,100794.80
2022-09-01T18:25:58.628Z,100794.84
2022-09-01T18:27:00.620Z,100800.16
2022-09-01T18:28:02.537Z,100787.81
2022-09-01T18:29:05.204Z,100809.02
2022-09-01T18:30:07.287Z,100808.16
2022-09-01T18:31:09.138Z,100806.42
2022-09-01T18:32:10.981Z,100810.84
2022-09-01T18:33:13.029Z,100810.84
2022-09-01T18:34:14.937Z,100809.09
2022-09-01T18:35:16.816Z,100804.70
2022-09-01T18:36:19.377Z,100804.70
2022-09-01T18:37:21.241Z,100809.15
2022-09-01T18:38:23.388Z,100810.95